world map with RJTR marked

RJTR - Heliport

This information may not be accurate or current and is not valid for navigation or flight planning. No warranty of fitness for any purpose is made or implied.

flag of Kanagawaflag of Japan

Donate via PayPal

Additional information is available on the NEW Great Circle Mapper

Location
City:  Machida, Kanagawa, Japan
Name:Camp Zema / Kastner Army Heliport
ICAO:RJTR

Details
Type:Heliport
Use:Military
Latitude:35°30'49"N (35.513611)
Longitude:139°23'37"E (139.393611)
Elevation:367 ft (112 m)
Helipads:1
Largest:1499 × 52 ft (457 × 16 m)

Time
Timezone:UTC+9 (DST+11)
Local Time:

Weather
METAR:RJTR  032013Z AUTO 16009G15KT 10SM SCT005 14/13 A2957 RMK AO2 SLP015

Related Locations
Nearby:
Farthest:SUEX: 12303 mi / 19800 km
Montevideo East [Montevideo East UIR], UY

Find:

   beyond  
but within

Other Information
Maps:
Sources:

  


 


Great Circle Mapper   Great Circle Mapper
Great Circle Mapper FAQ   Great Circle Mapper FAQ
  Karl's Home Page
KLSē   KLSē Home
   GC on Facebook
Airlines of the World   Airlines of the World
Donate via PayPal


Copyright © 2004-2019, Karl L. Swartz. All rights reserved.
All trademarks mentioned herein belong to their respective owners.

Please see credits for attribution and copyright information.

Karl Swartz <karl@kls2.com>
  Powered by FreeBSD
Valid HTML 4.01!
Labeled with ICRA
hCard Microformat
Geo Microformat